Time;durP1;ratioP1;P1;durP2;ratioP2;P2;SDS_P1;SDS_P2;PMS_P1;PMS_P2;Temp;Humidity;BMP_temperature;BMP_pressure;BME280_temperature;BME280_humidity;BME280_pressure;Samples;Min_cycle;Max_cycle;Signal;HPM_P1;HPM_P2
2021/03/17 00:01:05;;;;;;;3.70;3.10;;;;;;;;;;5119454;28;20255;-69
2021/03/17 00:03:33;;;;;;;4.00;2.90;;;;;;;;;;5119360;28;20229;-69
2021/03/17 00:06:00;;;;;;;3.50;3.10;;;;;;;;;;5119296;28;20225;-68
2021/03/17 00:08:27;;;;;;;4.97;3.20;;;;;;;;;;5119226;28;20213;-68
2021/03/17 00:10:55;;;;;;;5.77;2.90;;;;;;;;;;5119390;28;20205;-69
2021/03/17 00:13:23;;;;;;;5.93;3.33;;;;;;;;;;5118583;28;20205;-67
2021/03/17 00:15:50;;;;;;;4.30;3.13;;;;;;;;;;5118903;28;20756;-69
2021/03/17 00:18:17;;;;;;;5.67;3.40;;;;;;;;;;5119076;28;20656;-69
2021/03/17 00:20:46;;;;;;;3.40;3.07;;;;;;;;;;5118853;28;20320;-69
2021/03/17 00:23:13;;;;;;;4.03;3.13;;;;;;;;;;5118944;28;20230;-69
2021/03/17 00:25:41;;;;;;;7.03;3.40;;;;;;;;;;5118922;28;20224;-69
2021/03/17 00:28:08;;;;;;;6.27;3.63;;;;;;;;;;5118217;28;20236;-69
2021/03/17 00:30:36;;;;;;;5.50;3.23;;;;;;;;;;5118641;28;20296;-69
2021/03/17 00:33:04;;;;;;;3.60;3.30;;;;;;;;;;5118556;28;20205;-69
2021/03/17 00:35:31;;;;;;;4.70;3.43;;;;;;;;;;5107737;28;20764;-69
2021/03/17 00:37:59;;;;;;;4.00;3.50;;;;;;;;;;5098317;28;20209;-69
2021/03/17 00:40:26;;;;;;;4.40;3.07;;;;;;;;;;5098376;28;20206;-69
2021/03/17 00:42:53;;;;;;;4.70;2.80;;;;;;;;;;5097579;28;20726;-69
2021/03/17 00:45:20;;;;;;;5.20;3.80;;;;;;;;;;5098624;28;20447;-69
2021/03/17 00:47:47;;;;;;;3.00;2.70;;;;;;;;;;5100627;28;20481;-69
2021/03/17 00:50:16;;;;;;;4.43;2.60;;;;;;;;;;5098274;28;20440;-70
2021/03/17 00:52:43;;;;;;;3.40;2.50;;;;;;;;;;5097951;28;20847;-69
2021/03/17 00:55:13;;;;;;;3.13;2.47;;;;;;;;;;5099880;28;20320;-70
2021/03/17 00:57:40;;;;;;;3.13;2.70;;;;;;;;;;5117990;28;20526;-69
2021/03/17 01:00:09;;;;;;;3.23;2.93;;;;;;;;;;5118493;28;20539;-69
2021/03/17 01:02:36;;;;;;;4.47;2.67;;;;;;;;;;5118165;28;20221;-69
2021/03/17 01:05:03;;;;;;;2.43;2.23;;;;;;;;;;5118138;28;20519;-69
2021/03/17 01:07:30;;;;;;;3.37;2.23;;;;;;;;;;5118469;28;20530;-69
2021/03/17 01:09:58;;;;;;;3.03;2.73;;;;;;;;;;5118175;28;20938;-69
2021/03/17 01:12:26;;;;;;;4.97;2.90;;;;;;;;;;5118058;28;20810;-70
2021/03/17 01:14:53;;;;;;;4.10;2.53;;;;;;;;;;5117948;28;20471;-69
2021/03/17 01:17:20;;;;;;;3.67;2.60;;;;;;;;;;5118339;28;20481;-69
2021/03/17 01:19:47;;;;;;;2.73;2.07;;;;;;;;;;5118273;28;20446;-70
2021/03/17 01:22:14;;;;;;;2.60;2.40;;;;;;;;;;5118256;28;20220;-69
2021/03/17 01:24:41;;;;;;;4.40;2.63;;;;;;;;;;5118140;28;20466;-70
2021/03/17 01:27:08;;;;;;;4.13;2.53;;;;;;;;;;5118172;28;20264;-70
2021/03/17 01:29:36;;;;;;;3.97;2.80;;;;;;;;;;5117568;28;20273;-70
2021/03/17 01:32:04;;;;;;;2.73;2.53;;;;;;;;;;5118010;28;20244;-70
2021/03/17 01:34:31;;;;;;;3.17;2.87;;;;;;;;;;5115786;28;20221;-70
2021/03/17 01:36:58;;;;;;;3.80;2.90;;;;;;;;;;5097800;28;20439;-70
2021/03/17 01:39:25;;;;;;;5.77;2.97;;;;;;;;;;5097635;28;21022;-69
2021/03/17 01:41:52;;;;;;;5.97;3.60;;;;;;;;;;5097549;28;20451;-70
2021/03/17 01:44:19;;;;;;;7.33;3.03;;;;;;;;;;5097218;28;20495;-70
2021/03/17 01:46:47;;;;;;;5.63;3.37;;;;;;;;;;5101780;28;20451;-70
2021/03/17 01:49:14;;;;;;;5.63;4.37;;;;;;;;;;5097649;28;20448;-70
2021/03/17 01:51:42;;;;;;;5.40;4.00;;;;;;;;;;5097676;28;20443;-70
2021/03/17 01:54:10;;;;;;;6.20;3.70;;;;;;;;;;5097287;28;20814;-70
2021/03/17 01:56:37;;;;;;;4.17;3.57;;;;;;;;;;5112690;28;20702;-70
2021/03/17 01:59:04;;;;;;;5.80;3.27;;;;;;;;;;5121341;28;20201;-70
2021/03/17 02:01:31;;;;;;;4.63;3.87;;;;;;;;;;5121585;28;20590;-70
2021/03/17 02:03:59;;;;;;;4.67;3.73;;;;;;;;;;5121557;28;20488;-70
2021/03/17 02:06:26;;;;;;;3.83;3.43;;;;;;;;;;5121635;28;20229;-70
2021/03/17 02:08:53;;;;;;;5.17;3.93;;;;;;;;;;5121552;28;20236;-68
2021/03/17 02:11:20;;;;;;;5.43;4.33;;;;;;;;;;5121702;28;20205;-70
2021/03/17 02:14:01;;;;;;;8.20;4.20;;;;;;;;;;5120937;28;20287;-70
2021/03/17 02:16:30;;;;;;;4.73;4.23;;;;;;;;;;5121427;28;20238;-70
2021/03/17 02:19:07;;;;;;;4.90;3.93;;;;;;;;;;5121475;27;20288;-70
2021/03/17 02:22:07;;;;;;;4.63;3.40;;;;;;;;;;5121345;28;20449;-70
2021/03/17 02:24:38;;;;;;;4.97;3.13;;;;;;;;;;5121219;28;20488;-70
2021/03/17 02:27:23;;;;;;;6.30;3.47;;;;;;;;;;5121244;27;20446;-70
2021/03/17 02:30:00;;;;;;;3.90;3.00;;;;;;;;;;5120680;28;20564;-70
2021/03/17 02:32:44;;;;;;;3.37;3.07;;;;;;;;;;5120932;28;20833;-70
2021/03/17 02:35:14;;;;;;;4.57;3.37;;;;;;;;;;5113084;28;20603;-68
2021/03/17 02:37:42;;;;;;;3.13;2.90;;;;;;;;;;5100669;28;20209;-68
2021/03/17 02:40:12;;;;;;;4.73;3.73;;;;;;;;;;5100693;28;20209;-70
2021/03/17 02:42:41;;;;;;;4.40;3.57;;;;;;;;;;5099904;28;20225;-70
2021/03/17 02:45:10;;;;;;;4.67;3.53;;;;;;;;;;5100475;28;20222;-69
2021/03/17 02:47:39;;;;;;;7.33;4.10;;;;;;;;;;5100491;28;20252;-69
2021/03/17 02:50:08;;;;;;;3.50;3.20;;;;;;;;;;5100166;28;20209;-70
2021/03/17 02:52:37;;;;;;;7.60;4.10;;;;;;;;;;5100088;28;20711;-67
2021/03/17 02:55:06;;;;;;;4.63;3.87;;;;;;;;;;5100933;28;20676;-68
2021/03/17 02:57:35;;;;;;;4.07;3.03;;;;;;;;;;5120282;28;20280;-70
2021/03/17 03:00:04;;;;;;;2.87;2.67;;;;;;;;;;5120518;28;20237;-69
2021/03/17 03:02:31;;;;;;;4.53;2.53;;;;;;;;;;5120535;28;20217;-69
2021/03/17 03:04:58;;;;;;;3.53;2.43;;;;;;;;;;5120259;28;20970;-70
2021/03/17 03:07:25;;;;;;;3.27;2.97;;;;;;;;;;5119752;28;20962;-70
2021/03/17 03:09:54;;;;;;;3.47;3.03;;;;;;;;;;5119761;28;20477;-70
2021/03/17 03:12:22;;;;;;;3.47;3.07;;;;;;;;;;5120096;28;20949;-68
2021/03/17 03:14:49;;;;;;;3.50;3.10;;;;;;;;;;5119677;28;20994;-70
2021/03/17 03:17:17;;;;;;;3.53;3.20;;;;;;;;;;5120143;28;20489;-70
2021/03/17 03:19:48;;;;;;;4.00;3.03;;;;;;;;;;5120314;27;20486;-70
2021/03/17 03:22:15;;;;;;;3.30;3.00;;;;;;;;;;5120059;28;20585;-70
2021/03/17 03:24:46;;;;;;;3.23;2.93;;;;;;;;;;5119792;28;20458;-70
2021/03/17 03:27:15;;;;;;;4.50;2.67;;;;;;;;;;5120076;28;20450;-70
2021/03/17 03:29:42;;;;;;;3.33;3.00;;;;;;;;;;5119407;28;21001;-70
2021/03/17 03:32:09;;;;;;;3.77;3.47;;;;;;;;;;5120199;28;20567;-70
2021/03/17 03:34:37;;;;;;;3.93;3.20;;;;;;;;;;5116135;28;20486;-70
2021/03/17 03:37:04;;;;;;;4.37;3.47;;;;;;;;;;5099515;28;20447;-71
2021/03/17 03:39:31;;;;;;;3.87;3.40;;;;;;;;;;5099431;28;20518;-69
2021/03/17 03:41:59;;;;;;;4.07;3.30;;;;;;;;;;5099038;28;21018;-69
2021/03/17 03:44:26;;;;;;;3.70;3.20;;;;;;;;;;5099022;28;20502;-69
2021/03/17 03:46:54;;;;;;;3.77;3.37;;;;;;;;;;5103075;28;20451;-69
2021/03/17 03:49:23;;;;;;;4.00;3.60;;;;;;;;;;5099276;28;20527;-69
2021/03/17 03:51:51;;;;;;;4.13;3.73;;;;;;;;;;5099032;28;20505;-69
2021/03/17 03:54:21;;;;;;;3.93;3.33;;;;;;;;;;5099145;28;20494;-69
2021/03/17 03:56:51;;;;;;;3.60;3.30;;;;;;;;;;5114280;28;20439;-69
2021/03/17 03:59:22;;;;;;;3.90;3.50;;;;;;;;;;5118999;28;20466;-69
2021/03/17 04:01:53;;;;;;;3.67;3.20;;;;;;;;;;5119428;28;20446;-69
2021/03/17 04:04:22;;;;;;;3.43;3.13;;;;;;;;;;5119312;28;20510;-69
2021/03/17 04:06:50;;;;;;;5.03;3.33;;;;;;;;;;5119320;28;20447;-69
2021/03/17 04:09:21;;;;;;;3.70;3.33;;;;;;;;;;5119358;28;20454;-69
2021/03/17 04:11:48;;;;;;;3.37;3.07;;;;;;;;;;5119116;28;20482;-69
2021/03/17 04:14:17;;;;;;;3.80;3.33;;;;;;;;;;5118994;28;20511;-69
2021/03/17 04:16:57;;;;;;;4.30;3.20;;;;;;;;;;5118899;28;20442;-69
2021/03/17 04:19:25;;;;;;;4.00;3.60;;;;;;;;;;5118886;28;20516;-69
2021/03/17 04:21:52;;;;;;;4.10;3.70;;;;;;;;;;5119032;28;20228;-69
2021/03/17 04:24:21;;;;;;;3.90;3.60;;;;;;;;;;5119007;28;20289;-70
2021/03/17 04:26:49;;;;;;;3.30;2.90;;;;;;;;;;5118874;28;20287;-68
2021/03/17 04:29:16;;;;;;;4.93;3.43;;;;;;;;;;5118504;28;20278;-68
2021/03/17 04:31:44;;;;;;;4.43;3.30;;;;;;;;;;5118567;28;20570;-70
2021/03/17 04:34:13;;;;;;;5.27;3.30;;;;;;;;;;5118514;28;20362;-67
2021/03/17 04:36:40;;;;;;;2.90;2.70;;;;;;;;;;5098516;28;20262;-67
2021/03/17 04:39:09;;;;;;;3.47;3.17;;;;;;;;;;5098471;28;20284;-67
2021/03/17 04:41:37;;;;;;;3.33;3.03;;;;;;;;;;5098095;28;20244;-67
2021/03/17 04:44:04;;;;;;;3.63;3.33;;;;;;;;;;5097887;28;20283;-68
2021/03/17 04:46:31;;;;;;;3.77;3.47;;;;;;;;;;5101816;28;20239;-67
2021/03/17 04:49:00;;;;;;;4.10;3.37;;;;;;;;;;5098280;28;20209;-67
2021/03/17 04:51:27;;;;;;;3.40;3.10;;;;;;;;;;5098270;28;20671;-67
2021/03/17 04:53:55;;;;;;;4.80;3.67;;;;;;;;;;5098200;28;20284;-69
2021/03/17 04:56:25;;;;;;;4.77;3.50;;;;;;;;;;5109419;28;20226;-68
2021/03/17 04:58:52;;;;;;;4.03;3.60;;;;;;;;;;5118012;28;20622;-68
2021/03/17 05:01:20;;;;;;;5.37;3.87;;;;;;;;;;5118313;28;20668;-67
2021/03/17 05:03:48;;;;;;;4.13;3.53;;;;;;;;;;5118113;28;20232;-67
2021/03/17 05:06:15;;;;;;;4.87;3.53;;;;;;;;;;5118381;28;20224;-68
2021/03/17 05:08:47;;;;;;;3.90;3.00;;;;;;;;;;5118313;28;20244;-70
2021/03/17 05:11:14;;;;;;;3.13;2.80;;;;;;;;;;5118366;27;20663;-70
2021/03/17 05:13:41;;;;;;;2.77;2.50;;;;;;;;;;5117884;28;20254;-70
2021/03/17 05:16:10;;;;;;;3.97;2.80;;;;;;;;;;5118146;27;20634;-70
2021/03/17 05:18:37;;;;;;;3.20;2.50;;;;;;;;;;5118359;28;20446;-70
2021/03/17 05:21:05;;;;;;;2.83;2.30;;;;;;;;;;5118406;28;20521;-70
2021/03/17 05:23:32;;;;;;;3.37;2.70;;;;;;;;;;5117914;28;20315;-70
2021/03/17 05:26:00;;;;;;;3.47;2.47;;;;;;;;;;5118053;28;20642;-70
2021/03/17 05:28:29;;;;;;;3.13;2.20;;;;;;;;;;5117474;28;20795;-70
2021/03/17 05:30:56;;;;;;;3.60;2.67;;;;;;;;;;5118507;28;20449;-70
2021/03/17 05:33:25;;;;;;;2.67;2.43;;;;;;;;;;5122412;28;20232;-70
2021/03/17 05:35:53;;;;;;;2.80;2.60;;;;;;;;;;5107768;28;20657;-70
2021/03/17 05:38:20;;;;;;;2.80;2.50;;;;;;;;;;5106977;28;20198;-70
2021/03/17 05:40:48;;;;;;;3.80;2.57;;;;;;;;;;5111552;28;20211;-70
2021/03/17 05:43:17;;;;;;;3.30;1.90;;;;;;;;;;5112808;28;20719;-70
2021/03/17 05:45:44;;;;;;;3.40;2.53;;;;;;;;;;5113654;28;20240;-70
2021/03/17 05:48:12;;;;;;;3.30;2.80;;;;;;;;;;5112910;28;20226;-71
2021/03/17 05:50:39;;;;;;;6.00;2.73;;;;;;;;;;5111226;28;20292;-70
2021/03/17 05:53:07;;;;;;;3.40;2.90;;;;;;;;;;5111658;28;20205;-70
2021/03/17 05:55:34;;;;;;;6.23;3.07;;;;;;;;;;5113576;28;20247;-71
2021/03/17 05:58:02;;;;;;;3.70;2.80;;;;;;;;;;5112028;27;20212;-70
2021/03/17 06:00:30;;;;;;;6.03;2.43;;;;;;;;;;5111851;28;20208;-70
2021/03/17 06:02:58;;;;;;;3.30;2.40;;;;;;;;;;5112881;28;20228;-70
2021/03/17 06:05:27;;;;;;;2.47;2.20;;;;;;;;;;5111501;28;20227;-70
2021/03/17 06:07:57;;;;;;;4.50;2.63;;;;;;;;;;5113198;28;20196;-70
2021/03/17 06:10:26;;;;;;;4.33;2.47;;;;;;;;;;5113881;28;20204;-70
2021/03/17 06:12:57;;;;;;;3.13;1.80;;;;;;;;;;5110621;28;20284;-70
2021/03/17 06:15:24;;;;;;;2.83;1.77;;;;;;;;;;5113699;28;20256;-70
2021/03/17 06:17:54;;;;;;;2.93;1.90;;;;;;;;;;5111197;28;20239;-70
2021/03/17 06:20:21;;;;;;;5.23;1.60;;;;;;;;;;5108553;28;20608;-70
2021/03/17 06:22:48;;;;;;;3.07;1.70;;;;;;;;;;5121106;28;20770;-68
2021/03/17 06:25:16;;;;;;;2.33;1.50;;;;;;;;;;5121169;28;20303;-70
2021/03/17 06:27:43;;;;;;;3.47;1.57;;;;;;;;;;5118217;28;20262;-70
2021/03/17 06:30:12;;;;;;;3.67;1.20;;;;;;;;;;5109054;28;20205;-71
2021/03/17 06:32:40;;;;;;;2.50;1.10;;;;;;;;;;5100676;28;20209;-72
2021/03/17 06:35:18;;;;;;;3.47;1.63;;;;;;;;;;5102592;28;20256;-73
2021/03/17 06:37:50;;;;;;;5.57;1.50;;;;;;;;;;5108525;28;20207;-71
2021/03/17 06:40:23;;;;;;;4.83;1.30;;;;;;;;;;5111494;28;20250;-71
2021/03/17 06:42:50;;;;;;;3.37;1.40;;;;;;;;;;5109933;28;20271;-71
2021/03/17 06:45:28;;;;;;;1.50;1.00;;;;;;;;;;5114069;28;20224;-73
2021/03/17 06:47:56;;;;;;;5.80;1.63;;;;;;;;;;5101792;28;20205;-72
2021/03/17 06:50:29;;;;;;;4.17;1.47;;;;;;;;;;5100466;28;20240;-71
2021/03/17 06:52:56;;;;;;;5.47;2.10;;;;;;;;;;5100117;28;20726;-68
2021/03/17 06:55:23;;;;;;;4.50;1.10;;;;;;;;;;5103675;28;20252;-67
2021/03/17 06:57:51;;;;;;;4.67;1.30;;;;;;;;;;5113728;28;20706;-67
2021/03/17 07:00:20;;;;;;;1.70;1.03;;;;;;;;;;5111460;28;20241;-69
2021/03/17 07:02:51;;;;;;;2.40;1.63;;;;;;;;;;5102895;28;20233;-71
2021/03/17 07:05:19;;;;;;;3.57;1.63;;;;;;;;;;5099955;28;20259;-71
2021/03/17 07:07:47;;;;;;;2.33;1.30;;;;;;;;;;5099850;28;20632;-72
2021/03/17 07:10:26;;;;;;;5.83;1.30;;;;;;;;;;5105129;28;20245;-72
2021/03/17 07:12:53;;;;;;;3.77;1.30;;;;;;;;;;5110399;28;20287;-72
2021/03/17 07:15:20;;;;;;;3.33;1.20;;;;;;;;;;5111175;28;20263;-72
2021/03/17 07:17:48;;;;;;;2.43;1.47;;;;;;;;;;5112380;28;20201;-72
2021/03/17 07:20:34;;;;;;;5.83;1.40;;;;;;;;;;5110535;28;20201;-72
2021/03/17 07:23:16;;;;;;;4.00;1.20;;;;;;;;;;5110203;28;20248;-72
2021/03/17 07:26:02;;;;;;;2.77;1.20;;;;;;;;;;5110407;28;20224;-72
2021/03/17 07:28:29;;;;;;;6.07;1.40;;;;;;;;;;5111843;28;20239;-71
2021/03/17 07:31:12;;;;;;;3.70;1.17;;;;;;;;;;5111086;28;20209;-70
2021/03/17 07:33:39;;;;;;;3.70;1.40;;;;;;;;;;5110627;28;20216;-70
2021/03/17 07:36:07;;;;;;;3.90;1.93;;;;;;;;;;5112217;28;20222;-70
2021/03/17 07:38:34;;;;;;;4.00;1.67;;;;;;;;;;5111266;27;20679;-70
2021/03/17 07:41:02;;;;;;;3.87;1.60;;;;;;;;;;5110252;28;20243;-71
2021/03/17 07:43:30;;;;;;;3.90;1.77;;;;;;;;;;5104224;28;20260;-70
2021/03/17 07:45:57;;;;;;;2.33;1.50;;;;;;;;;;5103253;28;20260;-72
2021/03/17 07:48:26;;;;;;;2.50;1.60;;;;;;;;;;5099436;28;20217;-72
2021/03/17 07:50:55;;;;;;;5.73;1.50;;;;;;;;;;5098868;28;20264;-73
2021/03/17 07:53:24;;;;;;;2.93;1.10;;;;;;;;;;5099073;28;20231;-72
2021/03/17 07:55:53;;;;;;;6.27;1.50;;;;;;;;;;5106004;28;20221;-71
2021/03/17 07:58:21;;;;;;;3.33;1.40;;;;;;;;;;5118969;28;20228;-69
2021/03/17 08:00:48;;;;;;;3.67;1.37;;;;;;;;;;5119451;28;20236;-71
2021/03/17 08:03:16;;;;;;;4.67;1.60;;;;;;;;;;5119037;28;20228;-68
2021/03/17 08:05:43;;;;;;;5.60;1.23;;;;;;;;;;5118842;28;20772;-69
2021/03/17 08:08:11;;;;;;;3.50;1.50;;;;;;;;;;5119326;28;20205;-69
2021/03/17 08:10:39;;;;;;;3.40;1.53;;;;;;;;;;5118829;28;20642;-69
2021/03/17 08:13:07;;;;;;;7.83;1.90;;;;;;;;;;5118820;28;20236;-69
2021/03/17 08:15:37;;;;;;;8.07;1.53;;;;;;;;;;5118707;28;20755;-69
2021/03/17 08:18:25;;;;;;;4.73;1.37;;;;;;;;;;5109677;28;20681;-68
2021/03/17 08:20:52;;;;;;;2.70;1.20;;;;;;;;;;5108979;28;20214;-69
2021/03/17 08:23:34;;;;;;;6.77;1.70;;;;;;;;;;5110077;28;20245;-69
2021/03/17 08:26:01;;;;;;;6.83;1.40;;;;;;;;;;5109440;28;20213;-69
2021/03/17 08:28:29;;;;;;;4.90;1.90;;;;;;;;;;5100464;28;20696;-67
2021/03/17 08:30:57;;;;;;;4.00;1.40;;;;;;;;;;5098633;28;20210;-69
2021/03/17 08:33:32;;;;;;;7.47;1.50;;;;;;;;;;5098480;28;20209;-68
2021/03/17 08:36:01;;;;;;;3.10;1.20;;;;;;;;;;5100343;28;20217;-69
2021/03/17 08:38:47;;;;;;;5.23;1.20;;;;;;;;;;5098507;28;20212;-69
2021/03/17 08:41:14;;;;;;;6.93;1.80;;;;;;;;;;5100278;28;20255;-69
2021/03/17 08:43:44;;;;;;;5.33;1.33;;;;;;;;;;5108877;28;20261;-71
2021/03/17 08:46:13;;;;;;;3.70;1.03;;;;;;;;;;5110363;28;20329;-70
2021/03/17 08:48:57;;;;;;;2.83;1.30;;;;;;;;;;5110493;28;20201;-71
2021/03/17 08:51:43;;;;;;;5.60;1.60;;;;;;;;;;5118670;28;20257;-69
2021/03/17 08:54:25;;;;;;;3.20;1.37;;;;;;;;;;5118430;28;20219;-69
2021/03/17 08:56:52;;;;;;;3.27;1.20;;;;;;;;;;5117925;28;20208;-69
2021/03/17 08:59:20;;;;;;;2.60;1.20;;;;;;;;;;5118259;28;20208;-69
2021/03/17 09:01:48;;;;;;;11.67;2.63;;;;;;;;;;5118195;28;20663;-68
2021/03/17 09:04:30;;;;;;;5.30;2.53;;;;;;;;;;5118083;28;20293;-69
2021/03/17 09:07:06;;;;;;;3.23;1.43;;;;;;;;;;5117278;27;20240;-70
2021/03/17 09:09:44;;;;;;;7.97;2.17;;;;;;;;;;5118416;28;20225;-70
2021/03/17 09:12:11;;;;;;;2.67;1.30;;;;;;;;;;5117934;28;20253;-71
2021/03/17 09:14:39;;;;;;;5.53;1.83;;;;;;;;;;5118214;28;20252;-70
2021/03/17 09:17:39;;;;;;;2.33;1.10;;;;;;;;;;5117791;28;20197;-68
2021/03/17 09:20:21;;;;;;;4.77;1.87;;;;;;;;;;5108476;28;20228;-69
2021/03/17 09:22:50;;;;;;;2.70;1.37;;;;;;;;;;5108527;28;20721;-69
2021/03/17 09:25:21;;;;;;;2.87;1.17;;;;;;;;;;5115693;28;20221;-67
2021/03/17 09:27:50;;;;;;;6.70;1.87;;;;;;;;;;5108803;28;20201;-67
2021/03/17 09:30:18;;;;;;;8.53;2.00;;;;;;;;;;5109772;28;20234;-66
2021/03/17 09:32:45;;;;;;;4.87;1.87;;;;;;;;;;5108527;28;20190;-66
2021/03/17 09:35:13;;;;;;;4.30;1.23;;;;;;;;;;5111924;28;20274;-66
2021/03/17 09:37:41;;;;;;;3.03;1.43;;;;;;;;;;5098836;28;20205;-68
2021/03/17 09:40:09;;;;;;;4.37;1.67;;;;;;;;;;5098120;28;20293;-69
2021/03/17 09:42:37;;;;;;;3.57;1.40;;;;;;;;;;5099129;28;20377;-68
2021/03/17 09:45:05;;;;;;;5.00;1.50;;;;;;;;;;5117761;28;20311;-68
2021/03/17 09:47:32;;;;;;;5.77;1.93;;;;;;;;;;5101493;28;20756;-68
2021/03/17 09:50:00;;;;;;;3.07;1.63;;;;;;;;;;5097666;28;20201;-68
2021/03/17 09:52:27;;;;;;;4.37;1.70;;;;;;;;;;5097461;28;20213;-68
2021/03/17 09:54:55;;;;;;;7.70;1.50;;;;;;;;;;5097246;28;20228;-70
2021/03/17 09:57:23;;;;;;;3.03;1.80;;;;;;;;;;5113942;28;20241;-67
2021/03/17 09:59:51;;;;;;;3.20;1.70;;;;;;;;;;5117881;28;20205;-66
2021/03/17 10:02:21;;;;;;;5.27;1.70;;;;;;;;;;5117858;28;20212;-69
2021/03/17 10:04:50;;;;;;;6.97;2.37;;;;;;;;;;5117739;28;20237;-67
2021/03/17 10:07:19;;;;;;;5.23;1.80;;;;;;;;;;5117925;28;20262;-68
2021/03/17 10:09:46;;;;;;;6.07;1.90;;;;;;;;;;5117740;28;20204;-69
2021/03/17 10:12:15;;;;;;;5.50;1.57;;;;;;;;;;5117590;28;20205;-68
2021/03/17 10:14:45;;;;;;;4.33;1.60;;;;;;;;;;5114792;28;20217;-70
2021/03/17 10:17:14;;;;;;;6.00;1.80;;;;;;;;;;5111643;28;20683;-69
2021/03/17 10:19:42;;;;;;;5.50;1.70;;;;;;;;;;5114088;28;20202;-70
2021/03/17 10:22:10;;;;;;;7.60;1.70;;;;;;;;;;5117915;28;20204;-70
2021/03/17 10:24:39;;;;;;;5.80;1.80;;;;;;;;;;5120699;28;20229;-69
2021/03/17 10:27:07;;;;;;;4.20;1.63;;;;;;;;;;5120708;27;20211;-69
2021/03/17 10:29:35;;;;;;;5.73;1.77;;;;;;;;;;5120143;28;20232;-68
2021/03/17 10:32:06;;;;;;;4.57;1.77;;;;;;;;;;5120607;28;20253;-69
2021/03/17 10:34:33;;;;;;;5.53;2.10;;;;;;;;;;5107500;27;20216;-68
2021/03/17 10:37:01;;;;;;;3.97;1.70;;;;;;;;;;5119690;28;20209;-70
2021/03/17 10:39:29;;;;;;;2.77;1.57;;;;;;;;;;5102879;28;20213;-68
2021/03/17 10:41:56;;;;;;;4.33;1.50;;;;;;;;;;5115642;28;20611;-69
2021/03/17 10:44:24;;;;;;;5.60;1.90;;;;;;;;;;5102491;28;20229;-69
2021/03/17 10:47:04;;;;;;;9.00;1.77;;;;;;;;;;5112447;28;20233;-69
2021/03/17 10:49:32;;;;;;;3.37;1.60;;;;;;;;;;5105344;28;20288;-68
2021/03/17 10:52:07;;;;;;;5.23;1.87;;;;;;;;;;5099913;28;20216;-70
2021/03/17 10:54:34;;;;;;;3.87;2.00;;;;;;;;;;5128040;27;20247;-68
2021/03/17 10:57:08;;;;;;;2.80;1.40;;;;;;;;;;5119996;27;20260;-68
2021/03/17 10:59:36;;;;;;;2.63;1.73;;;;;;;;;;5122399;27;20205;-69
2021/03/17 11:02:18;;;;;;;5.57;1.63;;;;;;;;;;5132652;27;20562;-69
2021/03/17 11:05:04;;;;;;;3.63;1.27;;;;;;;;;;5133581;27;20219;-69
2021/03/17 11:07:47;;;;;;;1.57;1.10;;;;;;;;;;5130859;27;20738;-68
2021/03/17 11:10:27;;;;;;;3.30;1.33;;;;;;;;;;5124903;27;20241;-68
2021/03/17 11:12:54;;;;;;;2.87;1.63;;;;;;;;;;5126436;27;20201;-69
2021/03/17 11:15:23;;;;;;;4.30;1.83;;;;;;;;;;5128038;27;20252;-68
2021/03/17 11:17:52;;;;;;;2.33;1.80;;;;;;;;;;5124611;27;20233;-70
2021/03/17 11:20:20;;;;;;;1.70;1.60;;;;;;;;;;5116691;28;20296;-71
2021/03/17 11:22:47;;;;;;;4.13;1.97;;;;;;;;;;5115841;28;20255;-71
2021/03/17 11:25:14;;;;;;;4.40;1.90;;;;;;;;;;5110215;28;20355;-70
2021/03/17 11:27:41;;;;;;;2.30;1.77;;;;;;;;;;5109008;28;20285;-69
2021/03/17 11:30:09;;;;;;;2.97;2.10;;;;;;;;;;5098427;28;20661;-69
2021/03/17 11:32:37;;;;;;;1.83;1.50;;;;;;;;;;5099386;28;20201;-68
2021/03/17 11:35:07;;;;;;;2.13;1.93;;;;;;;;;;5103672;28;20263;-68
2021/03/17 11:37:34;;;;;;;2.13;1.93;;;;;;;;;;5099092;28;20216;-69
2021/03/17 11:40:01;;;;;;;1.80;1.70;;;;;;;;;;5098894;28;20570;-69
2021/03/17 11:42:29;;;;;;;5.10;2.03;;;;;;;;;;5098755;28;20252;-69
2021/03/17 11:45:05;;;;;;;3.43;2.90;;;;;;;;;;5098848;28;20233;-69
2021/03/17 11:47:32;;;;;;;4.57;2.20;;;;;;;;;;5110078;28;20653;-70
2021/03/17 11:50:00;;;;;;;2.30;1.80;;;;;;;;;;5098752;28;20704;-69
2021/03/17 11:52:29;;;;;;;2.43;1.90;;;;;;;;;;5099055;28;20209;-69
2021/03/17 11:54:56;;;;;;;2.63;1.77;;;;;;;;;;5098695;28;20224;-69
2021/03/17 11:57:23;;;;;;;2.53;2.10;;;;;;;;;;5114338;28;20657;-69
2021/03/17 11:59:50;;;;;;;2.43;2.07;;;;;;;;;;5118905;28;20219;-69
2021/03/17 12:02:17;;;;;;;4.47;2.60;;;;;;;;;;5118951;27;20209;-70
2021/03/17 12:04:45;;;;;;;3.67;2.40;;;;;;;;;;5118515;28;20722;-68
2021/03/17 12:07:12;;;;;;;2.33;2.03;;;;;;;;;;5118741;28;20258;-68
2021/03/17 12:09:40;;;;;;;2.37;2.17;;;;;;;;;;5118495;28;20676;-70
2021/03/17 12:12:07;;;;;;;5.10;2.60;;;;;;;;;;5118187;28;20265;-69
2021/03/17 12:14:34;;;;;;;2.40;2.03;;;;;;;;;;5118621;28;20280;-69
2021/03/17 12:17:02;;;;;;;3.80;2.63;;;;;;;;;;5118381;28;20205;-69
2021/03/17 12:19:30;;;;;;;3.03;2.67;;;;;;;;;;5118201;28;20576;-67
2021/03/17 12:21:57;;;;;;;2.87;2.50;;;;;;;;;;5118399;28;20678;-68
2021/03/17 12:24:24;;;;;;;3.77;3.13;;;;;;;;;;5113082;28;20251;-68
2021/03/17 12:26:52;;;;;;;3.03;2.73;;;;;;;;;;5110441;28;20663;-69
2021/03/17 12:29:19;;;;;;;2.93;2.40;;;;;;;;;;5117720;28;20292;-70
2021/03/17 12:31:46;;;;;;;3.30;2.53;;;;;;;;;;5115317;28;20707;-68
2021/03/17 12:34:13;;;;;;;4.83;2.10;;;;;;;;;;5109318;28;20196;-69
2021/03/17 12:36:40;;;;;;;2.87;2.63;;;;;;;;;;5109728;28;20197;-69
2021/03/17 12:39:07;;;;;;;2.77;1.80;;;;;;;;;;5108842;28;20225;-70
2021/03/17 12:41:35;;;;;;;3.27;2.03;;;;;;;;;;5114477;28;20250;-70
2021/03/17 12:44:03;;;;;;;2.40;2.07;;;;;;;;;;5109788;28;20249;-70
2021/03/17 12:46:30;;;;;;;1.97;1.87;;;;;;;;;;5112064;28;20237;-70
2021/03/17 12:48:57;;;;;;;2.13;1.93;;;;;;;;;;5117204;28;20197;-70
2021/03/17 12:51:24;;;;;;;4.73;2.00;;;;;;;;;;5118265;28;20236;-69
2021/03/17 12:53:51;;;;;;;3.37;2.33;;;;;;;;;;5118310;28;20231;-69
2021/03/17 12:56:18;;;;;;;2.93;2.27;;;;;;;;;;5117593;28;20221;-69
2021/03/17 12:58:45;;;;;;;3.03;2.67;;;;;;;;;;5118050;28;20232;-68
2021/03/17 13:01:13;;;;;;;2.17;1.90;;;;;;;;;;5118087;28;20253;-69
2021/03/17 13:03:40;;;;;;;2.17;1.97;;;;;;;;;;5118040;28;20574;-70
2021/03/17 13:06:08;;;;;;;2.63;2.40;;;;;;;;;;5118167;28;20260;-70
2021/03/17 13:08:35;;;;;;;2.93;2.40;;;;;;;;;;5114716;28;20193;-69
2021/03/17 13:11:02;;;;;;;3.53;2.60;;;;;;;;;;5109013;28;20202;-69
2021/03/17 13:13:29;;;;;;;2.73;2.50;;;;;;;;;;5111334;28;20236;-69
2021/03/17 13:15:56;;;;;;;4.33;3.00;;;;;;;;;;5110817;28;20308;-68
2021/03/17 13:18:24;;;;;;;3.17;2.80;;;;;;;;;;5113747;28;20257;-70
2021/03/17 13:20:51;;;;;;;2.87;2.63;;;;;;;;;;5116125;28;20199;-70
2021/03/17 13:23:18;;;;;;;4.30;2.27;;;;;;;;;;5113872;28;20279;-71
2021/03/17 13:25:46;;;;;;;2.47;2.27;;;;;;;;;;5114819;28;20221;-70
2021/03/17 13:28:13;;;;;;;3.90;2.10;;;;;;;;;;5109108;28;20237;-70
2021/03/17 13:30:41;;;;;;;2.63;2.30;;;;;;;;;;5108947;28;20600;-70
2021/03/17 13:33:08;;;;;;;2.63;2.43;;;;;;;;;;5115348;28;20674;-69
2021/03/17 13:35:37;;;;;;;3.33;2.27;;;;;;;;;;5103847;28;20775;-70
2021/03/17 13:38:06;;;;;;;2.27;2.07;;;;;;;;;;5097299;28;20209;-70
2021/03/17 13:40:33;;;;;;;2.13;1.80;;;;;;;;;;5097106;28;20206;-70
2021/03/17 13:43:00;;;;;;;4.17;2.83;;;;;;;;;;5103810;28;20240;-70
2021/03/17 13:45:27;;;;;;;2.50;2.30;;;;;;;;;;5117467;28;20319;-70
2021/03/17 13:47:54;;;;;;;2.57;2.00;;;;;;;;;;5097375;28;20269;-70
2021/03/17 13:50:21;;;;;;;2.50;2.30;;;;;;;;;;5097097;28;20201;-70
2021/03/17 13:52:49;;;;;;;2.20;2.00;;;;;;;;;;5099181;28;20270;-70
2021/03/17 13:55:16;;;;;;;2.00;1.80;;;;;;;;;;5102651;28;20253;-70
2021/03/17 13:57:43;;;;;;;2.60;1.80;;;;;;;;;;5114075;28;20293;-70
2021/03/17 14:00:12;;;;;;;2.80;2.33;;;;;;;;;;5101165;28;20300;-70
2021/03/17 14:02:39;;;;;;;2.73;2.17;;;;;;;;;;5107847;28;20205;-70
2021/03/17 14:05:07;;;;;;;2.57;2.33;;;;;;;;;;5121211;28;20681;-70
2021/03/17 14:07:34;;;;;;;5.60;2.60;;;;;;;;;;5121175;28;20733;-70
2021/03/17 14:10:04;;;;;;;2.87;2.63;;;;;;;;;;5121342;28;20296;-70
2021/03/17 14:12:32;;;;;;;2.83;2.40;;;;;;;;;;5121150;28;20213;-70
2021/03/17 14:14:59;;;;;;;2.80;2.60;;;;;;;;;;5120890;28;20298;-71
2021/03/17 14:17:26;;;;;;;2.20;2.00;;;;;;;;;;5121175;28;20208;-70
2021/03/17 14:19:53;;;;;;;2.60;2.10;;;;;;;;;;5120891;28;20209;-70
2021/03/17 14:22:21;;;;;;;2.53;2.33;;;;;;;;;;5121189;28;20215;-71
2021/03/17 14:24:48;;;;;;;2.93;2.40;;;;;;;;;;5120678;28;20298;-71
2021/03/17 14:27:16;;;;;;;2.13;1.93;;;;;;;;;;5120298;28;20232;-71
2021/03/17 14:29:43;;;;;;;2.30;2.10;;;;;;;;;;5120566;28;20248;-71
2021/03/17 14:32:11;;;;;;;3.00;2.60;;;;;;;;;;5116305;28;20229;-72
2021/03/17 14:34:38;;;;;;;2.83;2.53;;;;;;;;;;5111923;28;20281;-72
2021/03/17 14:37:05;;;;;;;3.50;2.70;;;;;;;;;;5099777;28;20237;-70
2021/03/17 14:39:32;;;;;;;2.47;2.23;;;;;;;;;;5098915;28;20224;-71
2021/03/17 14:41:59;;;;;;;3.93;2.87;;;;;;;;;;5099412;28;20262;-72
2021/03/17 14:44:39;;;;;;;3.20;2.40;;;;;;;;;;5107117;28;20231;-71
2021/03/17 14:47:06;;;;;;;3.07;2.70;;;;;;;;;;5106282;28;20247;-70
2021/03/17 14:49:33;;;;;;;2.90;2.50;;;;;;;;;;5100095;28;20248;-70
2021/03/17 14:52:01;;;;;;;3.63;2.70;;;;;;;;;;5100109;28;20235;-71
2021/03/17 14:54:28;;;;;;;4.27;2.67;;;;;;;;;;5099854;28;20555;-71